sensor_id;sensor_type;location;lat;lon;timestamp;temperature;humidity
80218;DHT22;69533;37.974;23.708;2023-05-10T00:02:07;22.90;41.50
80218;DHT22;69533;37.974;23.708;2023-05-10T00:04:33;22.90;41.50
80218;DHT22;69533;37.974;23.708;2023-05-10T00:06:58;22.90;41.50
80218;DHT22;69533;37.974;23.708;2023-05-10T00:09:24;22.90;41.60
80218;DHT22;69533;37.974;23.708;2023-05-10T00:11:50;22.80;41.60
80218;DHT22;69533;37.974;23.708;2023-05-10T00:14:16;22.90;41.60
80218;DHT22;69533;37.974;23.708;2023-05-10T00:16:42;22.90;42.70
80218;DHT22;69533;37.974;23.708;2023-05-10T00:19:08;22.80;41.60
80218;DHT22;69533;37.974;23.708;2023-05-10T00:21:33;22.90;41.70
80218;DHT22;69533;37.974;23.708;2023-05-10T00:23:59;22.90;41.70
80218;DHT22;69533;37.974;23.708;2023-05-10T00:26:25;22.80;41.60
80218;DHT22;69533;37.974;23.708;2023-05-10T00:28:51;22.90;41.70
80218;DHT22;69533;37.974;23.708;2023-05-10T00:31:17;22.80;41.80
80218;DHT22;69533;37.974;23.708;2023-05-10T00:33:42;22.80;41.70
80218;DHT22;69533;37.974;23.708;2023-05-10T00:36:08;22.80;41.70
80218;DHT22;69533;37.974;23.708;2023-05-10T00:38:34;22.80;41.70
80218;DHT22;69533;37.974;23.708;2023-05-10T00:41:00;22.80;41.80
80218;DHT22;69533;37.974;23.708;2023-05-10T00:43:26;22.80;41.80
80218;DHT22;69533;37.974;23.708;2023-05-10T00:45:52;22.80;41.90
80218;DHT22;69533;37.974;23.708;2023-05-10T00:48:18;22.80;41.80
80218;DHT22;69533;37.974;23.708;2023-05-10T00:50:44;22.80;41.80
80218;DHT22;69533;37.974;23.708;2023-05-10T00:53:10;22.80;41.80
80218;DHT22;69533;37.974;23.708;2023-05-10T00:55:36;22.80;41.80
80218;DHT22;69533;37.974;23.708;2023-05-10T00:58:03;22.80;41.80
80218;DHT22;69533;37.974;23.708;2023-05-10T01:00:29;22.80;41.80
80218;DHT22;69533;37.974;23.708;2023-05-10T01:02:55;22.80;41.80
80218;DHT22;69533;37.974;23.708;2023-05-10T01:05:21;22.70;41.70
80218;DHT22;69533;37.974;23.708;2023-05-10T01:07:47;22.80;41.70
80218;DHT22;69533;37.974;23.708;2023-05-10T01:10:13;22.80;41.70
80218;DHT22;69533;37.974;23.708;2023-05-10T01:12:42;22.70;41.70
80218;DHT22;69533;37.974;23.708;2023-05-10T01:15:10;22.80;41.60
80218;DHT22;69533;37.974;23.708;2023-05-10T01:17:38;22.80;41.60
80218;DHT22;69533;37.974;23.708;2023-05-10T01:20:05;22.80;41.60
80218;DHT22;69533;37.974;23.708;2023-05-10T01:28:23;22.70;41.50
80218;DHT22;69533;37.974;23.708;2023-05-10T01:33:50;22.70;41.50
80218;DHT22;69533;37.974;23.708;2023-05-10T01:36:58;22.70;41.50
80218;DHT22;69533;37.974;23.708;2023-05-10T01:39:36;22.70;41.50
80218;DHT22;69533;37.974;23.708;2023-05-10T01:42:14;22.70;41.40
80218;DHT22;69533;37.974;23.708;2023-05-10T01:45:02;22.70;41.50
80218;DHT22;69533;37.974;23.708;2023-05-10T01:47:46;22.60;41.40
80218;DHT22;69533;37.974;23.708;2023-05-10T01:50:19;22.60;41.40
80218;DHT22;69533;37.974;23.708;2023-05-10T01:52:53;22.60;41.30
80218;DHT22;69533;37.974;23.708;2023-05-10T01:55:21;22.70;41.40
80218;DHT22;69533;37.974;23.708;2023-05-10T01:57:52;22.70;42.30
80218;DHT22;69533;37.974;23.708;2023-05-10T02:00:22;22.70;41.30
80218;DHT22;69533;37.974;23.708;2023-05-10T02:02:49;22.60;41.30
80218;DHT22;69533;37.974;23.708;2023-05-10T02:05:16;22.60;41.30
80218;DHT22;69533;37.974;23.708;2023-05-10T02:07:43;22.60;41.30
80218;DHT22;69533;37.974;23.708;2023-05-10T02:10:10;22.60;41.30
80218;DHT22;69533;37.974;23.708;2023-05-10T02:12:41;22.60;41.20
80218;DHT22;69533;37.974;23.708;2023-05-10T02:15:08;22.60;41.30
80218;DHT22;69533;37.974;23.708;2023-05-10T02:17:35;22.60;41.30
80218;DHT22;69533;37.974;23.708;2023-05-10T02:20:03;22.60;41.30
80218;DHT22;69533;37.974;23.708;2023-05-10T02:22:30;22.60;41.20
80218;DHT22;69533;37.974;23.708;2023-05-10T02:24:58;22.60;41.30
80218;DHT22;69533;37.974;23.708;2023-05-10T02:27:25;22.60;41.20
80218;DHT22;69533;37.974;23.708;2023-05-10T02:29:53;22.60;41.20
80218;DHT22;69533;37.974;23.708;2023-05-10T02:32:21;22.60;41.20
80218;DHT22;69533;37.974;23.708;2023-05-10T02:34:48;22.60;41.30
80218;DHT22;69533;37.974;23.708;2023-05-10T02:37:19;22.60;41.30
80218;DHT22;69533;37.974;23.708;2023-05-10T02:39:47;22.60;41.30
80218;DHT22;69533;37.974;23.708;2023-05-10T02:42:17;22.60;41.30
80218;DHT22;69533;37.974;23.708;2023-05-10T02:44:47;22.60;41.40
80218;DHT22;69533;37.974;23.708;2023-05-10T02:47:13;22.60;41.30
80218;DHT22;69533;37.974;23.708;2023-05-10T02:49:39;22.60;41.30
80218;DHT22;69533;37.974;23.708;2023-05-10T02:52:06;22.60;41.30
80218;DHT22;69533;37.974;23.708;2023-05-10T02:54:41;22.60;41.30
80218;DHT22;69533;37.974;23.708;2023-05-10T02:57:14;22.50;41.30
80218;DHT22;69533;37.974;23.708;2023-05-10T02:59:41;22.50;41.20
80218;DHT22;69533;37.974;23.708;2023-05-10T03:02:08;22.60;41.30
80218;DHT22;69533;37.974;23.708;2023-05-10T03:04:35;22.50;41.30
80218;DHT22;69533;37.974;23.708;2023-05-10T03:07:01;22.50;41.20
80218;DHT22;69533;37.974;23.708;2023-05-10T03:09:28;22.50;41.20
80218;DHT22;69533;37.974;23.708;2023-05-10T03:18:05;22.50;41.30
80218;DHT22;69533;37.974;23.708;2023-05-10T03:20:42;22.50;41.20
80218;DHT22;69533;37.974;23.708;2023-05-10T03:23:13;22.50;41.20
80218;DHT22;69533;37.974;23.708;2023-05-10T03:25:42;22.50;41.20
80218;DHT22;69533;37.974;23.708;2023-05-10T03:28:09;22.50;41.20
80218;DHT22;69533;37.974;23.708;2023-05-10T03:30:35;22.50;41.10
80218;DHT22;69533;37.974;23.708;2023-05-10T03:33:05;22.50;41.10
80218;DHT22;69533;37.974;23.708;2023-05-10T03:35:32;22.50;41.10
80218;DHT22;69533;37.974;23.708;2023-05-10T03:37:57;22.50;41.10
80218;DHT22;69533;37.974;23.708;2023-05-10T03:40:24;22.50;41.10
80218;DHT22;69533;37.974;23.708;2023-05-10T03:42:49;22.50;41.00
80218;DHT22;69533;37.974;23.708;2023-05-10T03:45:15;22.50;41.00
80218;DHT22;69533;37.974;23.708;2023-05-10T03:47:41;22.50;41.00
80218;DHT22;69533;37.974;23.708;2023-05-10T03:50:07;22.50;40.90
80218;DHT22;69533;37.974;23.708;2023-05-10T03:52:33;22.50;40.90
80218;DHT22;69533;37.974;23.708;2023-05-10T03:54:59;22.50;40.90
80218;DHT22;69533;37.974;23.708;2023-05-10T03:57:24;22.50;40.80
80218;DHT22;69533;37.974;23.708;2023-05-10T03:59:50;22.50;40.70
80218;DHT22;69533;37.974;23.708;2023-05-10T04:02:16;22.60;40.80
80218;DHT22;69533;37.974;23.708;2023-05-10T04:04:41;22.50;40.70
80218;DHT22;69533;37.974;23.708;2023-05-10T04:07:07;22.50;40.70
80218;DHT22;69533;37.974;23.708;2023-05-10T04:09:33;22.50;40.70
80218;DHT22;69533;37.974;23.708;2023-05-10T04:11:59;22.60;40.70
80218;DHT22;69533;37.974;23.708;2023-05-10T04:14:27;22.60;40.70
80218;DHT22;69533;37.974;23.708;2023-05-10T04:16:53;22.60;40.70
80218;DHT22;69533;37.974;23.708;2023-05-10T04:19:18;22.60;40.90
80218;DHT22;69533;37.974;23.708;2023-05-10T04:21:44;22.60;41.30
80218;DHT22;69533;37.974;23.708;2023-05-10T04:24:10;22.60;41.40
80218;DHT22;69533;37.974;23.708;2023-05-10T04:26:36;22.60;41.30
80218;DHT22;69533;37.974;23.708;2023-05-10T04:29:01;22.60;41.20
80218;DHT22;69533;37.974;23.708;2023-05-10T04:31:27;22.60;41.10
80218;DHT22;69533;37.974;23.708;2023-05-10T04:33:53;22.60;41.10
80218;DHT22;69533;37.974;23.708;2023-05-10T04:36:19;22.60;41.00
80218;DHT22;69533;37.974;23.708;2023-05-10T04:38:44;22.60;41.00
80218;DHT22;69533;37.974;23.708;2023-05-10T04:41:11;22.60;40.90
80218;DHT22;69533;37.974;23.708;2023-05-10T04:43:37;22.60;40.90
80218;DHT22;69533;37.974;23.708;2023-05-10T04:46:04;22.60;40.90
80218;DHT22;69533;37.974;23.708;2023-05-10T04:48:30;22.60;40.80
80218;DHT22;69533;37.974;23.708;2023-05-10T04:50:56;22.60;40.80
80218;DHT22;69533;37.974;23.708;2023-05-10T04:53:22;22.60;40.70
80218;DHT22;69533;37.974;23.708;2023-05-10T04:55:47;22.70;40.70
80218;DHT22;69533;37.974;23.708;2023-05-10T04:58:14;22.70;40.70
80218;DHT22;69533;37.974;23.708;2023-05-10T05:00:40;22.70;40.60
80218;DHT22;69533;37.974;23.708;2023-05-10T05:03:05;22.70;40.60
80218;DHT22;69533;37.974;23.708;2023-05-10T05:05:31;22.80;40.50
80218;DHT22;69533;37.974;23.708;2023-05-10T05:07:57;22.80;40.40
80218;DHT22;69533;37.974;23.708;2023-05-10T05:10:22;22.80;40.40
80218;DHT22;69533;37.974;23.708;2023-05-10T05:12:48;22.80;40.30
80218;DHT22;69533;37.974;23.708;2023-05-10T05:15:14;22.90;40.20
80218;DHT22;69533;37.974;23.708;2023-05-10T05:17:42;23.00;40.00
80218;DHT22;69533;37.974;23.708;2023-05-10T05:20:08;23.20;39.80
80218;DHT22;69533;37.974;23.708;2023-05-10T05:22:36;23.30;39.40
80218;DHT22;69533;37.974;23.708;2023-05-10T05:25:01;23.50;39.20
80218;DHT22;69533;37.974;23.708;2023-05-10T05:27:29;23.60;39.00
80218;DHT22;69533;37.974;23.708;2023-05-10T05:29:58;23.60;38.70
80218;DHT22;69533;37.974;23.708;2023-05-10T05:32:24;23.70;38.60
80218;DHT22;69533;37.974;23.708;2023-05-10T05:34:51;23.70;38.50
80218;DHT22;69533;37.974;23.708;2023-05-10T05:37:20;23.80;38.30
80218;DHT22;69533;37.974;23.708;2023-05-10T05:39:46;23.90;38.20
80218;DHT22;69533;37.974;23.708;2023-05-10T05:42:13;23.90;38.10
80218;DHT22;69533;37.974;23.708;2023-05-10T05:44:40;24.00;38.00
80218;DHT22;69533;37.974;23.708;2023-05-10T05:47:06;24.00;37.90
80218;DHT22;69533;37.974;23.708;2023-05-10T05:49:32;24.00;37.70
80218;DHT22;69533;37.974;23.708;2023-05-10T05:52:02;24.20;37.60
80218;DHT22;69533;37.974;23.708;2023-05-10T05:54:29;24.20;37.50
80218;DHT22;69533;37.974;23.708;2023-05-10T05:56:59;24.30;37.40
80218;DHT22;69533;37.974;23.708;2023-05-10T05:59:25;24.30;37.20
80218;DHT22;69533;37.974;23.708;2023-05-10T06:01:51;24.40;37.20
80218;DHT22;69533;37.974;23.708;2023-05-10T06:04:18;24.40;37.00
80218;DHT22;69533;37.974;23.708;2023-05-10T06:06:43;24.40;36.90
80218;DHT22;69533;37.974;23.708;2023-05-10T06:09:09;24.40;36.80
80218;DHT22;69533;37.974;23.708;2023-05-10T06:11:36;24.50;36.70
80218;DHT22;69533;37.974;23.708;2023-05-10T06:14:02;24.60;36.60
80218;DHT22;69533;37.974;23.708;2023-05-10T06:16:30;24.70;36.40
80218;DHT22;69533;37.974;23.708;2023-05-10T06:18:56;24.90;36.10
80218;DHT22;69533;37.974;23.708;2023-05-10T06:21:22;25.00;35.80
80218;DHT22;69533;37.974;23.708;2023-05-10T06:23:47;25.10;35.50
80218;DHT22;69533;37.974;23.708;2023-05-10T06:26:15;25.20;35.40
80218;DHT22;69533;37.974;23.708;2023-05-10T06:28:40;25.20;35.20
80218;DHT22;69533;37.974;23.708;2023-05-10T06:31:06;25.30;35.10
80218;DHT22;69533;37.974;23.708;2023-05-10T06:33:33;25.30;35.00
80218;DHT22;69533;37.974;23.708;2023-05-10T06:35:58;25.40;34.70
80218;DHT22;69533;37.974;23.708;2023-05-10T06:38:24;25.60;34.60
80218;DHT22;69533;37.974;23.708;2023-05-10T06:40:50;25.60;34.40
80218;DHT22;69533;37.974;23.708;2023-05-10T06:43:16;25.70;34.30
80218;DHT22;69533;37.974;23.708;2023-05-10T06:45:42;25.80;34.10
80218;DHT22;69533;37.974;23.708;2023-05-10T06:48:07;25.90;34.50
80218;DHT22;69533;37.974;23.708;2023-05-10T06:50:33;26.00;33.70
80218;DHT22;69533;37.974;23.708;2023-05-10T06:53:00;26.10;33.50
80218;DHT22;69533;37.974;23.708;2023-05-10T06:55:26;26.20;33.40
80218;DHT22;69533;37.974;23.708;2023-05-10T06:57:52;26.30;33.20
80218;DHT22;69533;37.974;23.708;2023-05-10T07:00:18;26.40;33.10
80218;DHT22;69533;37.974;23.708;2023-05-10T07:02:45;26.40;33.00
80218;DHT22;69533;37.974;23.708;2023-05-10T07:05:11;26.40;32.90
80218;DHT22;69533;37.974;23.708;2023-05-10T07:07:38;26.40;32.90
80218;DHT22;69533;37.974;23.708;2023-05-10T07:10:04;26.40;32.90
80218;DHT22;69533;37.974;23.708;2023-05-10T07:12:30;26.40;32.90
80218;DHT22;69533;37.974;23.708;2023-05-10T07:14:55;26.40;32.90
80218;DHT22;69533;37.974;23.708;2023-05-10T07:17:21;26.40;33.00
80218;DHT22;69533;37.974;23.708;2023-05-10T07:19:47;26.40;33.00
80218;DHT22;69533;37.974;23.708;2023-05-10T07:22:13;26.30;32.90
80218;DHT22;69533;37.974;23.708;2023-05-10T07:24:38;26.30;32.90
80218;DHT22;69533;37.974;23.708;2023-05-10T07:27:04;26.30;32.90
80218;DHT22;69533;37.974;23.708;2023-05-10T07:29:30;26.30;34.00
80218;DHT22;69533;37.974;23.708;2023-05-10T07:31:55;26.30;33.00
80218;DHT22;69533;37.974;23.708;2023-05-10T07:34:22;26.30;33.00
80218;DHT22;69533;37.974;23.708;2023-05-10T07:36:48;26.20;33.10
80218;DHT22;69533;37.974;23.708;2023-05-10T07:39:13;26.20;33.20
80218;DHT22;69533;37.974;23.708;2023-05-10T07:41:39;26.20;33.20
80218;DHT22;69533;37.974;23.708;2023-05-10T07:44:06;26.10;33.20
80218;DHT22;69533;37.974;23.708;2023-05-10T07:46:32;26.10;33.40
80218;DHT22;69533;37.974;23.708;2023-05-10T07:48:57;26.00;33.30
80218;DHT22;69533;37.974;23.708;2023-05-10T07:51:23;26.00;33.50
80218;DHT22;69533;37.974;23.708;2023-05-10T07:53:49;26.00;33.50
80218;DHT22;69533;37.974;23.708;2023-05-10T07:56:26;26.00;33.50
80218;DHT22;69533;37.974;23.708;2023-05-10T07:58:55;25.90;33.50
80218;DHT22;69533;37.974;23.708;2023-05-10T08:01:21;25.90;33.50
80218;DHT22;69533;37.974;23.708;2023-05-10T08:03:48;25.90;33.60
80218;DHT22;69533;37.974;23.708;2023-05-10T08:06:14;25.80;33.60
80218;DHT22;69533;37.974;23.708;2023-05-10T08:08:41;25.80;33.70
80218;DHT22;69533;37.974;23.708;2023-05-10T08:11:07;25.80;33.70
80218;DHT22;69533;37.974;23.708;2023-05-10T08:13:33;25.80;33.80
80218;DHT22;69533;37.974;23.708;2023-05-10T08:15:59;25.70;33.80
80218;DHT22;69533;37.974;23.708;2023-05-10T08:18:25;25.70;33.80
80218;DHT22;69533;37.974;23.708;2023-05-10T08:20:50;25.70;33.80
80218;DHT22;69533;37.974;23.708;2023-05-10T08:23:16;25.70;33.80
80218;DHT22;69533;37.974;23.708;2023-05-10T08:25:42;25.70;33.80
80218;DHT22;69533;37.974;23.708;2023-05-10T08:28:07;25.70;33.80
80218;DHT22;69533;37.974;23.708;2023-05-10T08:30:33;25.70;33.80
80218;DHT22;69533;37.974;23.708;2023-05-10T08:32:59;25.70;33.80
80218;DHT22;69533;37.974;23.708;2023-05-10T08:35:24;25.70;33.80
80218;DHT22;69533;37.974;23.708;2023-05-10T08:37:51;25.60;33.80
80218;DHT22;69533;37.974;23.708;2023-05-10T08:40:19;25.60;33.80
80218;DHT22;69533;37.974;23.708;2023-05-10T08:42:55;25.60;33.70
80218;DHT22;69533;37.974;23.708;2023-05-10T08:45:23;25.70;33.80
80218;DHT22;69533;37.974;23.708;2023-05-10T08:47:49;25.60;33.70
80218;DHT22;69533;37.974;23.708;2023-05-10T08:50:18;25.60;33.60
80218;DHT22;69533;37.974;23.708;2023-05-10T08:52:46;25.70;33.60
80218;DHT22;69533;37.974;23.708;2023-05-10T08:55:14;25.70;33.60
80218;DHT22;69533;37.974;23.708;2023-05-10T08:57:40;25.70;33.60
80218;DHT22;69533;37.974;23.708;2023-05-10T09:00:07;25.70;33.50
80218;DHT22;69533;37.974;23.708;2023-05-10T09:02:35;25.70;33.50
80218;DHT22;69533;37.974;23.708;2023-05-10T09:05:02;25.70;33.50
80218;DHT22;69533;37.974;23.708;2023-05-10T09:07:30;25.70;33.50
80218;DHT22;69533;37.974;23.708;2023-05-10T09:09:56;25.70;33.50
80218;DHT22;69533;37.974;23.708;2023-05-10T09:12:23;25.70;33.50
80218;DHT22;69533;37.974;23.708;2023-05-10T09:14:50;25.70;33.50
80218;DHT22;69533;37.974;23.708;2023-05-10T09:17:17;25.70;33.60
80218;DHT22;69533;37.974;23.708;2023-05-10T09:19:44;25.70;33.50
80218;DHT22;69533;37.974;23.708;2023-05-10T09:22:10;25.70;33.50
80218;DHT22;69533;37.974;23.708;2023-05-10T09:24:35;25.70;33.50
80218;DHT22;69533;37.974;23.708;2023-05-10T09:27:02;25.70;33.40
80218;DHT22;69533;37.974;23.708;2023-05-10T09:29:42;25.70;33.40
80218;DHT22;69533;37.974;23.708;2023-05-10T09:32:08;25.70;33.50
80218;DHT22;69533;37.974;23.708;2023-05-10T09:34:33;25.70;33.50
80218;DHT22;69533;37.974;23.708;2023-05-10T09:37:02;25.70;33.50
80218;DHT22;69533;37.974;23.708;2023-05-10T09:39:33;25.70;33.40
80218;DHT22;69533;37.974;23.708;2023-05-10T09:42:01;25.70;33.40
80218;DHT22;69533;37.974;23.708;2023-05-10T09:44:29;25.70;33.50
80218;DHT22;69533;37.974;23.708;2023-05-10T09:46:55;25.70;33.40
80218;DHT22;69533;37.974;23.708;2023-05-10T09:49:21;25.70;33.30
80218;DHT22;69533;37.974;23.708;2023-05-10T09:51:47;25.70;33.30
80218;DHT22;69533;37.974;23.708;2023-05-10T09:54:23;25.70;33.30
80218;DHT22;69533;37.974;23.708;2023-05-10T09:56:49;25.70;33.20
80218;DHT22;69533;37.974;23.708;2023-05-10T09:59:15;25.70;33.20
80218;DHT22;69533;37.974;23.708;2023-05-10T10:01:49;25.70;33.30
80218;DHT22;69533;37.974;23.708;2023-05-10T10:04:15;25.70;33.30
80218;DHT22;69533;37.974;23.708;2023-05-10T10:06:41;25.70;33.20
80218;DHT22;69533;37.974;23.708;2023-05-10T10:09:08;25.70;33.20
80218;DHT22;69533;37.974;23.708;2023-05-10T10:11:38;25.70;33.20
80218;DHT22;69533;37.974;23.708;2023-05-10T10:14:04;25.70;33.20
80218;DHT22;69533;37.974;23.708;2023-05-10T10:16:31;25.70;33.20
80218;DHT22;69533;37.974;23.708;2023-05-10T10:18:57;25.70;33.20
80218;DHT22;69533;37.974;23.708;2023-05-10T10:21:24;25.70;33.20
80218;DHT22;69533;37.974;23.708;2023-05-10T10:23:51;25.70;33.20
80218;DHT22;69533;37.974;23.708;2023-05-10T10:26:17;25.70;33.30
80218;DHT22;69533;37.974;23.708;2023-05-10T10:29:00;25.70;33.10
80218;DHT22;69533;37.974;23.708;2023-05-10T10:31:41;25.70;33.10
80218;DHT22;69533;37.974;23.708;2023-05-10T10:34:11;25.70;33.10
80218;DHT22;69533;37.974;23.708;2023-05-10T10:36:46;25.70;33.10
80218;DHT22;69533;37.974;23.708;2023-05-10T10:39:13;25.70;33.10
80218;DHT22;69533;37.974;23.708;2023-05-10T10:41:54;25.70;33.10
80218;DHT22;69533;37.974;23.708;2023-05-10T10:44:40;25.70;33.20
80218;DHT22;69533;37.974;23.708;2023-05-10T10:47:10;25.70;33.20
80218;DHT22;69533;37.974;23.708;2023-05-10T10:52:25;25.60;33.20
80218;DHT22;69533;37.974;23.708;2023-05-10T10:55:12;25.60;33.40
80218;DHT22;69533;37.974;23.708;2023-05-10T11:03:14;25.50;33.50
80218;DHT22;69533;37.974;23.708;2023-05-10T11:11:05;25.40;33.70
80218;DHT22;69533;37.974;23.708;2023-05-10T11:13:43;25.40;33.80
80218;DHT22;69533;37.974;23.708;2023-05-10T11:16:25;25.40;33.90
80218;DHT22;69533;37.974;23.708;2023-05-10T11:21:23;25.30;34.00
80218;DHT22;69533;37.974;23.708;2023-05-10T11:23:52;25.40;34.10
80218;DHT22;69533;37.974;23.708;2023-05-10T11:26:22;25.40;34.20
80218;DHT22;69533;37.974;23.708;2023-05-10T11:28:51;25.40;34.10
80218;DHT22;69533;37.974;23.708;2023-05-10T11:31:17;25.40;34.20
80218;DHT22;69533;37.974;23.708;2023-05-10T11:33:52;25.40;34.20
80218;DHT22;69533;37.974;23.708;2023-05-10T11:36:20;25.40;34.20
80218;DHT22;69533;37.974;23.708;2023-05-10T11:38:47;25.40;34.20
80218;DHT22;69533;37.974;23.708;2023-05-10T11:41:15;25.40;34.30
80218;DHT22;69533;37.974;23.708;2023-05-10T11:43:56;25.40;34.30
80218;DHT22;69533;37.974;23.708;2023-05-10T11:46:27;25.40;34.40
80218;DHT22;69533;37.974;23.708;2023-05-10T11:48:58;25.30;34.30
80218;DHT22;69533;37.974;23.708;2023-05-10T11:51:27;25.30;34.50
80218;DHT22;69533;37.974;23.708;2023-05-10T11:53:54;25.30;34.50
80218;DHT22;69533;37.974;23.708;2023-05-10T11:56:20;25.30;34.60
80218;DHT22;69533;37.974;23.708;2023-05-10T11:58:55;25.30;34.60
80218;DHT22;69533;37.974;23.708;2023-05-10T12:01:22;25.30;34.70
80218;DHT22;69533;37.974;23.708;2023-05-10T12:03:50;25.30;34.70
80218;DHT22;69533;37.974;23.708;2023-05-10T12:06:17;25.30;34.80
80218;DHT22;69533;37.974;23.708;2023-05-10T12:08:47;25.30;34.90
80218;DHT22;69533;37.974;23.708;2023-05-10T12:11:13;25.30;35.00
80218;DHT22;69533;37.974;23.708;2023-05-10T12:13:42;25.30;34.90
80218;DHT22;69533;37.974;23.708;2023-05-10T12:18:43;25.30;35.00
80218;DHT22;69533;37.974;23.708;2023-05-10T12:21:12;25.30;35.00
80218;DHT22;69533;37.974;23.708;2023-05-10T12:23:38;25.30;35.10
80218;DHT22;69533;37.974;23.708;2023-05-10T12:26:05;25.30;35.10
80218;DHT22;69533;37.974;23.708;2023-05-10T12:28:33;25.30;35.20
80218;DHT22;69533;37.974;23.708;2023-05-10T12:30:59;25.30;35.10
80218;DHT22;69533;37.974;23.708;2023-05-10T12:33:25;25.30;35.20
80218;DHT22;69533;37.974;23.708;2023-05-10T12:35:55;25.30;35.10
80218;DHT22;69533;37.974;23.708;2023-05-10T12:38:26;25.30;35.20
80218;DHT22;69533;37.974;23.708;2023-05-10T12:40:55;25.30;35.20
80218;DHT22;69533;37.974;23.708;2023-05-10T12:43:21;25.30;35.20
80218;DHT22;69533;37.974;23.708;2023-05-10T12:45:47;25.30;35.20
80218;DHT22;69533;37.974;23.708;2023-05-10T12:48:14;25.30;35.10
80218;DHT22;69533;37.974;23.708;2023-05-10T12:50:40;25.30;35.10
80218;DHT22;69533;37.974;23.708;2023-05-10T12:53:06;25.20;35.10
80218;DHT22;69533;37.974;23.708;2023-05-10T12:55:32;25.20;35.10
80218;DHT22;69533;37.974;23.708;2023-05-10T12:57:57;25.30;35.30
80218;DHT22;69533;37.974;23.708;2023-05-10T13:00:23;25.30;35.30
80218;DHT22;69533;37.974;23.708;2023-05-10T13:02:49;25.30;35.30
80218;DHT22;69533;37.974;23.708;2023-05-10T13:05:14;25.30;35.40
80218;DHT22;69533;37.974;23.708;2023-05-10T13:07:40;25.20;35.30
80218;DHT22;69533;37.974;23.708;2023-05-10T13:10:07;25.20;35.40
80218;DHT22;69533;37.974;23.708;2023-05-10T13:12:32;25.20;35.40
80218;DHT22;69533;37.974;23.708;2023-05-10T13:14:58;25.10;35.40
80218;DHT22;69533;37.974;23.708;2023-05-10T13:17:25;25.10;35.40
80218;DHT22;69533;37.974;23.708;2023-05-10T13:19:51;25.10;35.50
80218;DHT22;69533;37.974;23.708;2023-05-10T13:22:17;25.10;35.50
80218;DHT22;69533;37.974;23.708;2023-05-10T13:24:43;25.10;35.60
80218;DHT22;69533;37.974;23.708;2023-05-10T13:27:08;25.10;35.60
80218;DHT22;69533;37.974;23.708;2023-05-10T13:29:34;25.10;35.60
80218;DHT22;69533;37.974;23.708;2023-05-10T13:32:00;25.20;35.70
80218;DHT22;69533;37.974;23.708;2023-05-10T13:34:26;25.10;35.70
80218;DHT22;69533;37.974;23.708;2023-05-10T13:36:52;25.10;35.70
80218;DHT22;69533;37.974;23.708;2023-05-10T13:39:20;25.10;35.80
80218;DHT22;69533;37.974;23.708;2023-05-10T13:41:45;25.10;35.80
80218;DHT22;69533;37.974;23.708;2023-05-10T13:44:15;25.10;35.80
80218;DHT22;69533;37.974;23.708;2023-05-10T13:46:41;25.10;35.90
80218;DHT22;69533;37.974;23.708;2023-05-10T13:49:10;25.00;35.90
80218;DHT22;69533;37.974;23.708;2023-05-10T13:51:36;25.10;36.00
80218;DHT22;69533;37.974;23.708;2023-05-10T13:54:02;25.00;36.00
80218;DHT22;69533;37.974;23.708;2023-05-10T13:56:28;25.00;36.10
80218;DHT22;69533;37.974;23.708;2023-05-10T13:58:56;25.00;36.10
80218;DHT22;69533;37.974;23.708;2023-05-10T14:01:22;25.00;36.10
80218;DHT22;69533;37.974;23.708;2023-05-10T14:03:48;25.00;36.10
80218;DHT22;69533;37.974;23.708;2023-05-10T14:06:14;25.00;36.20
80218;DHT22;69533;37.974;23.708;2023-05-10T14:08:40;25.00;36.20
80218;DHT22;69533;37.974;23.708;2023-05-10T14:11:05;25.00;36.20
80218;DHT22;69533;37.974;23.708;2023-05-10T14:13:31;24.90;36.20
80218;DHT22;69533;37.974;23.708;2023-05-10T14:15:57;24.90;36.40
80218;DHT22;69533;37.974;23.708;2023-05-10T14:18:28;24.90;36.30
80218;DHT22;69533;37.974;23.708;2023-05-10T14:20:54;24.90;36.40
80218;DHT22;69533;37.974;23.708;2023-05-10T14:23:22;24.90;36.50
80218;DHT22;69533;37.974;23.708;2023-05-10T14:25:50;24.90;36.40
80218;DHT22;69533;37.974;23.708;2023-05-10T14:28:16;24.90;36.50
80218;DHT22;69533;37.974;23.708;2023-05-10T14:30:44;24.90;36.50
80218;DHT22;69533;37.974;23.708;2023-05-10T14:33:10;24.90;36.50
80218;DHT22;69533;37.974;23.708;2023-05-10T14:35:36;24.90;36.50
80218;DHT22;69533;37.974;23.708;2023-05-10T14:38:04;24.80;36.60
80218;DHT22;69533;37.974;23.708;2023-05-10T14:40:30;24.80;36.60
80218;DHT22;69533;37.974;23.708;2023-05-10T14:42:56;24.80;36.60
80218;DHT22;69533;37.974;23.708;2023-05-10T14:45:22;24.80;36.60
80218;DHT22;69533;37.974;23.708;2023-05-10T14:47:49;24.80;36.70
80218;DHT22;69533;37.974;23.708;2023-05-10T14:50:15;24.80;36.70
80218;DHT22;69533;37.974;23.708;2023-05-10T14:52:42;24.80;36.70
80218;DHT22;69533;37.974;23.708;2023-05-10T14:55:08;24.80;36.70
80218;DHT22;69533;37.974;23.708;2023-05-10T14:57:34;24.80;36.80
80218;DHT22;69533;37.974;23.708;2023-05-10T14:59:59;24.70;36.80
80218;DHT22;69533;37.974;23.708;2023-05-10T15:02:25;24.80;36.90
80218;DHT22;69533;37.974;23.708;2023-05-10T15:04:51;24.70;36.90
80218;DHT22;69533;37.974;23.708;2023-05-10T15:07:18;24.70;37.00
80218;DHT22;69533;37.974;23.708;2023-05-10T15:09:47;24.70;37.00
80218;DHT22;69533;37.974;23.708;2023-05-10T15:12:12;24.70;37.00
80218;DHT22;69533;37.974;23.708;2023-05-10T15:14:38;24.70;37.00
80218;DHT22;69533;37.974;23.708;2023-05-10T15:17:06;24.70;37.10
80218;DHT22;69533;37.974;23.708;2023-05-10T15:19:31;24.60;37.10
80218;DHT22;69533;37.974;23.708;2023-05-10T15:21:58;24.60;37.10
80218;DHT22;69533;37.974;23.708;2023-05-10T15:24:24;24.60;37.20
80218;DHT22;69533;37.974;23.708;2023-05-10T15:26:50;24.60;37.20
80218;DHT22;69533;37.974;23.708;2023-05-10T15:29:16;24.60;37.30
80218;DHT22;69533;37.974;23.708;2023-05-10T15:31:49;24.60;37.30
80218;DHT22;69533;37.974;23.708;2023-05-10T15:34:15;24.50;37.30
80218;DHT22;69533;37.974;23.708;2023-05-10T15:36:41;24.50;37.30
80218;DHT22;69533;37.974;23.708;2023-05-10T15:39:07;24.50;37.40
80218;DHT22;69533;37.974;23.708;2023-05-10T15:41:35;24.50;37.50
80218;DHT22;69533;37.974;23.708;2023-05-10T15:44:01;24.40;37.40
80218;DHT22;69533;37.974;23.708;2023-05-10T15:46:27;24.40;37.50
80218;DHT22;69533;37.974;23.708;2023-05-10T15:48:53;24.40;37.50
80218;DHT22;69533;37.974;23.708;2023-05-10T15:51:19;24.40;37.60